Time;durP1;ratioP1;P1;durP2;ratioP2;P2;SDS_P1;SDS_P2;PMS_P1;PMS_P2;Temp;Humidity;BMP_temperature;BMP_pressure;BME280_temperature;BME280_humidity;BME280_pressure;Samples;Min_cycle;Max_cycle;Signal;HPM_P1;HPM_P2
2021/09/04 00:00:58;;;;;;;;;;;;;;;;;;5041933;28;20313;-83
2021/09/04 00:03:42;;;;;;;;;;;;;;;;;;5050651;28;19928;-82
2021/09/04 00:06:26;;;;;;;;;;;;;;;;;;5038466;28;19928;-82
2021/09/04 00:09:10;;;;;;;;;;;;;;;;;;5039951;28;20404;-82
2021/09/04 00:11:55;;;;;;;;;;;;;;;;;;5025146;28;19998;-82
2021/09/04 00:14:39;;;;;;;;;;;;;;;;;;5043170;28;19921;-82
2021/09/04 00:17:23;;;;;;;;;;;;;;;;;;5041504;28;19921;-82
2021/09/04 00:20:07;;;;;;;;;;;;;;;;;;5036710;28;19924;-82
2021/09/04 00:22:52;;;;;;;;;;;;;;;;;;5037439;28;19928;-82
2021/09/04 00:25:36;;;;;;;;;;;;;;;;;;5045740;28;19920;-82
2021/09/04 00:28:20;;;;;;;;;;;;;;;;;;5044379;28;19936;-82
2021/09/04 00:31:04;;;;;;;;;;;;;;;;;;5041686;28;19920;-83
2021/09/04 00:33:49;;;;;;;;;;;;;;;;;;5045805;28;20018;-81
2021/09/04 00:36:33;;;;;;;;;;;;;;;;;;5043030;28;19920;-82
2021/09/04 00:39:17;;;;;;;;;;;;;;;;;;5042970;28;19920;-83
2021/09/04 00:42:01;;;;;;;;;;;;;;;;;;5046793;28;19924;-82
2021/09/04 00:44:45;;;;;;;;;;;;;;;;;;5045942;28;19920;-82
2021/09/04 00:47:30;;;;;;;;;;;;;;;;;;5041273;28;19920;-83
2021/09/04 00:50:14;;;;;;;;;;;;;;;;;;5040728;28;20396;-82
2021/09/04 00:52:58;;;;;;;;;;;;;;;;;;5025172;28;19920;-82
2021/09/04 00:55:42;;;;;;;;;;;;;;;;;;5023045;28;19932;-82
2021/09/04 00:58:27;;;;;;;;;;;;;;;;;;5021801;28;19936;-82
2021/09/04 01:01:12;;;;;;;;;;;;;;;;;;5025841;28;19924;-83
2021/09/04 01:03:57;;;;;;;;;;;;;;;;;;5024020;28;19948;-82
2021/09/04 01:06:42;;;;;;;;;;;;;;;;;;5032974;28;20304;-84
2021/09/04 01:09:27;;;;;;;;;;;;;;;;;;5041905;28;19924;-82
2021/09/04 01:12:13;;;;;;;;;;;;;;;;;;5041755;28;19920;-83
2021/09/04 01:14:57;;;;;;;;;;;;;;;;;;5040477;28;19920;-82
2021/09/04 01:17:41;;;;;;;;;;;;;;;;;;5043814;28;19943;-81
2021/09/04 01:20:26;;;;;;;;;;;;;;;;;;5042181;28;19921;-82
2021/09/04 01:23:10;;;;;;;;;;;;;;;;;;5041029;28;19924;-83
2021/09/04 01:25:54;;;;;;;;;;;;;;;;;;5044566;28;19928;-81
2021/09/04 01:28:38;;;;;;;;;;;;;;;;;;5044281;28;19920;-83
2021/09/04 01:31:23;;;;;;;;;;;;;;;;;;5041394;28;19920;-83
2021/09/04 01:34:07;;;;;;;;;;;;;;;;;;5045762;28;19920;-82
2021/09/04 01:36:51;;;;;;;;;;;;;;;;;;5041140;28;19936;-82
2021/09/04 01:39:35;;;;;;;;;;;;;;;;;;5042247;28;19920;-83
2021/09/04 01:42:19;;;;;;;;;;;;;;;;;;5046374;28;19924;-82
2021/09/04 01:45:03;;;;;;;;;;;;;;;;;;5044450;28;19920;-83
2021/09/04 01:47:47;;;;;;;;;;;;;;;;;;5040952;28;19928;-83
2021/09/04 01:50:31;;;;;;;;;;;;;;;;;;5040865;28;19924;-82
2021/09/04 01:53:15;;;;;;;;;;;;;;;;;;5044104;28;19920;-81
2021/09/04 01:56:00;;;;;;;;;;;;;;;;;;5043322;28;19920;-82
2021/09/04 01:58:44;;;;;;;;;;;;;;;;;;5039816;28;19920;-82
2021/09/04 02:01:29;;;;;;;;;;;;;;;;;;5044625;28;19920;-82
2021/09/04 02:04:13;;;;;;;;;;;;;;;;;;5042350;28;19936;-83
2021/09/04 02:07:03;;;;;;;;;;;;;;;;;;5051537;28;19920;-81
2021/09/04 02:10:14;;;;;;;;;;;;;;;;;;5035897;28;19928;-82
2021/09/04 02:13:00;;;;;;;;;;;;;;;;;;5045114;28;19920;-82
2021/09/04 02:15:44;;;;;;;;;;;;;;;;;;5044949;28;19928;-82
2021/09/04 02:18:33;;;;;;;;;;;;;;;;;;5042948;28;19920;-82
2021/09/04 02:21:17;;;;;;;;;;;;;;;;;;5039432;28;19921;-82
2021/09/04 02:24:02;;;;;;;;;;;;;;;;;;5036855;28;19928;-83
2021/09/04 02:26:46;;;;;;;;;;;;;;;;;;5039979;28;19920;-81
2021/09/04 02:29:31;;;;;;;;;;;;;;;;;;5040771;28;19920;-82
2021/09/04 02:32:15;;;;;;;;;;;;;;;;;;5041257;28;19920;-82
2021/09/04 02:35:01;;;;;;;;;;;;;;;;;;5040020;28;20115;-82
2021/09/04 02:37:45;;;;;;;;;;;;;;;;;;5042372;28;19940;-82
2021/09/04 02:40:30;;;;;;;;;;;;;;;;;;5045083;28;19920;-82
2021/09/04 02:43:15;;;;;;;;;;;;;;;;;;5040562;28;19932;-82
2021/09/04 02:45:59;;;;;;;;;;;;;;;;;;5044533;28;19920;-83
2021/09/04 02:48:43;;;;;;;;;;;;;;;;;;5040481;28;19920;-82
2021/09/04 02:51:28;;;;;;;;;;;;;;;;;;5020416;28;19920;-82
2021/09/04 02:54:12;;;;;;;;;;;;;;;;;;5044771;28;19920;-81
2021/09/04 02:56:57;;;;;;;;;;;;;;;;;;5042940;28;19921;-82
2021/09/04 02:59:41;;;;;;;;;;;;;;;;;;5039507;28;19928;-82
2021/09/04 03:02:26;;;;;;;;;;;;;;;;;;5041823;28;19956;-81
2021/09/04 03:05:10;;;;;;;;;;;;;;;;;;5042874;28;19920;-81
2021/09/04 03:07:55;;;;;;;;;;;;;;;;;;5040401;28;20291;-82
2021/09/04 03:10:40;;;;;;;;;;;;;;;;;;5036677;28;19928;-83
2021/09/04 03:13:24;;;;;;;;;;;;;;;;;;5041946;28;19920;-81
2021/09/04 03:16:09;;;;;;;;;;;;;;;;;;5041061;28;19928;-81
2021/09/04 03:18:54;;;;;;;;;;;;;;;;;;5039053;28;19921;-81
2021/09/04 03:21:40;;;;;;;;;;;;;;;;;;5041952;28;19921;-82
2021/09/04 03:24:24;;;;;;;;;;;;;;;;;;5039837;28;19920;-82
2021/09/04 03:27:08;;;;;;;;;;;;;;;;;;5039072;28;19920;-82
2021/09/04 03:29:55;;;;;;;;;;;;;;;;;;5039168;28;19925;-82
2021/09/04 03:32:40;;;;;;;;;;;;;;;;;;5039806;28;19925;-82
2021/09/04 03:35:24;;;;;;;;;;;;;;;;;;5039627;28;19921;-82
2021/09/04 03:38:08;;;;;;;;;;;;;;;;;;5043307;28;19920;-83
2021/09/04 03:40:55;;;;;;;;;;;;;;;;;;5040138;28;20456;-81
2021/09/04 03:43:39;;;;;;;;;;;;;;;;;;5039644;28;19924;-81
2021/09/04 03:46:23;;;;;;;;;;;;;;;;;;5042792;28;20328;-81
2021/09/04 03:49:08;;;;;;;;;;;;;;;;;;5041504;28;19919;-81
2021/09/04 03:51:52;;;;;;;;;;;;;;;;;;5038418;28;20297;-80
2021/09/04 03:54:36;;;;;;;;;;;;;;;;;;5040383;28;19920;-82
2021/09/04 03:57:22;;;;;;;;;;;;;;;;;;5041377;28;19925;-82
2021/09/04 04:00:07;;;;;;;;;;;;;;;;;;5041467;28;19921;-83
2021/09/04 04:02:56;;;;;;;;;;;;;;;;;;5039966;28;19924;-81
2021/09/04 04:05:41;;;;;;;;;;;;;;;;;;5025928;28;19921;-82
2021/09/04 04:08:26;;;;;;;;;;;;;;;;;;5029777;28;19940;-82
2021/09/04 04:11:11;;;;;;;;;;;;;;;;;;5047181;28;19936;-82
2021/09/04 04:13:55;;;;;;;;;;;;;;;;;;5045256;28;19920;-82
2021/09/04 04:16:39;;;;;;;;;;;;;;;;;;5043981;28;19920;-82
2021/09/04 04:19:23;;;;;;;;;;;;;;;;;;5041102;28;19921;-82
2021/09/04 04:22:07;;;;;;;;;;;;;;;;;;5045632;28;19924;-81
2021/09/04 04:24:52;;;;;;;;;;;;;;;;;;5042663;28;19924;-82
2021/09/04 04:27:38;;;;;;;;;;;;;;;;;;5040833;28;19920;-82
2021/09/04 04:30:23;;;;;;;;;;;;;;;;;;5041729;28;20294;-80
2021/09/04 04:33:07;;;;;;;;;;;;;;;;;;5024704;28;19921;-81
2021/09/04 04:35:52;;;;;;;;;;;;;;;;;;5046590;28;20855;-82
2021/09/04 04:38:37;;;;;;;;;;;;;;;;;;5044088;28;19920;-82
2021/09/04 04:41:21;;;;;;;;;;;;;;;;;;5029340;28;19920;-82
2021/09/04 04:44:05;;;;;;;;;;;;;;;;;;5039066;28;19936;-82
2021/09/04 04:46:49;;;;;;;;;;;;;;;;;;5040658;28;20400;-84
2021/09/04 04:49:34;;;;;;;;;;;;;;;;;;5033696;28;19932;-83
2021/09/04 04:52:18;;;;;;;;;;;;;;;;;;5040774;28;19921;-85
2021/09/04 04:55:05;;;;;;;;;;;;;;;;;;5039511;28;19920;-86
2021/09/04 04:57:50;;;;;;;;;;;;;;;;;;5047578;28;19992;-83
2021/09/04 05:00:35;;;;;;;;;;;;;;;;;;5039282;28;19920;-83
2021/09/04 05:03:20;;;;;;;;;;;;;;;;;;5044474;28;19924;-85
2021/09/04 05:06:04;;;;;;;;;;;;;;;;;;5043385;28;19920;-85
2021/09/04 05:08:48;;;;;;;;;;;;;;;;;;5040455;28;19924;-84
2021/09/04 05:11:34;;;;;;;;;;;;;;;;;;5041453;28;19936;-85
2021/09/04 05:14:18;;;;;;;;;;;;;;;;;;5044573;28;19920;-85
2021/09/04 05:17:04;;;;;;;;;;;;;;;;;;5024839;28;19928;-85
2021/09/04 05:19:49;;;;;;;;;;;;;;;;;;5042493;28;19940;-85
2021/09/04 05:22:34;;;;;;;;;;;;;;;;;;5045840;28;19968;-86
2021/09/04 05:25:19;;;;;;;;;;;;;;;;;;5044255;28;19920;-85
2021/09/04 05:28:03;;;;;;;;;;;;;;;;;;5042172;28;19920;-85
2021/09/04 05:30:47;;;;;;;;;;;;;;;;;;5045848;28;19938;-85
2021/09/04 05:33:32;;;;;;;;;;;;;;;;;;5044180;28;19920;-86
2021/09/04 05:36:16;;;;;;;;;;;;;;;;;;5056043;28;19921;-85
2021/09/04 05:39:00;;;;;;;;;;;;;;;;;;5044814;28;19928;-84
2021/09/04 05:41:44;;;;;;;;;;;;;;;;;;5044629;28;20297;-85
2021/09/04 05:44:29;;;;;;;;;;;;;;;;;;5043005;28;19932;-84
2021/09/04 05:47:13;;;;;;;;;;;;;;;;;;5046895;28;19920;-85
2021/09/04 05:49:57;;;;;;;;;;;;;;;;;;5043123;28;19921;-85
2021/09/04 05:52:41;;;;;;;;;;;;;;;;;;5043323;28;19920;-84
2021/09/04 05:55:25;;;;;;;;;;;;;;;;;;5048231;28;19931;-85
2021/09/04 05:58:09;;;;;;;;;;;;;;;;;;5045155;28;20396;-85
2021/09/04 06:00:53;;;;;;;;;;;;;;;;;;5043156;28;19920;-85
2021/09/04 06:03:38;;;;;;;;;;;;;;;;;;5047216;28;19928;-85
2021/09/04 06:06:22;;;;;;;;;;;;;;;;;;5045814;28;20147;-85
2021/09/04 06:09:06;;;;;;;;;;;;;;;;;;5043170;28;19932;-85
2021/09/04 06:11:50;;;;;;;;;;;;;;;;;;5041517;28;19924;-84
2021/09/04 06:14:34;;;;;;;;;;;;;;;;;;5045825;28;20393;-84
2021/09/04 06:17:19;;;;;;;;;;;;;;;;;;5043812;28;19921;-85
2021/09/04 06:20:03;;;;;;;;;;;;;;;;;;5041836;28;19924;-85
2021/09/04 06:22:47;;;;;;;;;;;;;;;;;;5044759;28;20026;-85
2021/09/04 06:25:34;;;;;;;;;;;;;;;;;;5043979;28;19920;-85
2021/09/04 06:28:18;;;;;;;;;;;;;;;;;;5040867;28;19925;-85
2021/09/04 06:31:02;;;;;;;;;;;;;;;;;;5043571;28;19924;-84
2021/09/04 06:33:46;;;;;;;;;;;;;;;;;;5042897;28;19920;-85
2021/09/04 06:36:31;;;;;;;;;;;;;;;;;;5040103;28;19929;-84
2021/09/04 06:39:15;;;;;;;;;;;;;;;;;;5041742;28;19920;-84
2021/09/04 06:41:59;;;;;;;;;;;;;;;;;;5037260;28;20500;-83
2021/09/04 06:44:43;;;;;;;;;;;;;;;;;;5039159;28;19924;-84
2021/09/04 06:47:27;;;;;;;;;;;;;;;;;;5037984;28;19936;-84
2021/09/04 06:50:12;;;;;;;;;;;;;;;;;;5040156;28;19921;-86
2021/09/04 06:52:56;;;;;;;;;;;;;;;;;;5041945;28;19920;-86
2021/09/04 06:55:40;;;;;;;;;;;;;;;;;;5042555;28;19924;-85
2021/09/04 06:58:25;;;;;;;;;;;;;;;;;;5045303;28;19920;-86
2021/09/04 07:01:09;;;;;;;;;;;;;;;;;;5042636;28;19920;-86
2021/09/04 07:03:53;;;;;;;;;;;;;;;;;;5045895;28;19924;-86
2021/09/04 07:06:37;;;;;;;;;;;;;;;;;;5043768;28;20301;-86
2021/09/04 07:09:21;;;;;;;;;;;;;;;;;;5041229;28;19924;-87
2021/09/04 07:12:06;;;;;;;;;;;;;;;;;;5041359;28;19921;-86
2021/09/04 07:14:50;;;;;;;;;;;;;;;;;;5045571;28;19920;-85
2021/09/04 07:17:34;;;;;;;;;;;;;;;;;;5041773;28;19920;-84
2021/09/04 07:20:18;;;;;;;;;;;;;;;;;;5039424;28;19921;-83
2021/09/04 07:23:03;;;;;;;;;;;;;;;;;;5042759;28;19928;-83
2021/09/04 07:25:47;;;;;;;;;;;;;;;;;;5037685;28;19921;-84
2021/09/04 07:28:32;;;;;;;;;;;;;;;;;;5039475;28;19985;-84
2021/09/04 07:31:16;;;;;;;;;;;;;;;;;;5043285;28;19920;-83
2021/09/04 07:34:00;;;;;;;;;;;;;;;;;;5039435;28;19920;-83
2021/09/04 07:36:45;;;;;;;;;;;;;;;;;;5040089;28;19928;-82
2021/09/04 07:39:29;;;;;;;;;;;;;;;;;;5040275;28;19936;-83
2021/09/04 07:42:13;;;;;;;;;;;;;;;;;;5043986;28;19924;-84
2021/09/04 07:44:57;;;;;;;;;;;;;;;;;;5042665;28;19920;-84
2021/09/04 07:47:41;;;;;;;;;;;;;;;;;;5040942;28;20111;-84
2021/09/04 07:50:25;;;;;;;;;;;;;;;;;;5044986;28;20397;-83
2021/09/04 07:53:10;;;;;;;;;;;;;;;;;;5042681;28;19920;-84
2021/09/04 07:55:54;;;;;;;;;;;;;;;;;;5047413;28;19936;-83
2021/09/04 07:58:38;;;;;;;;;;;;;;;;;;5045463;28;20290;-84
2021/09/04 08:01:22;;;;;;;;;;;;;;;;;;5041016;28;19940;-84
2021/09/04 08:04:07;;;;;;;;;;;;;;;;;;5039447;28;19924;-84
2021/09/04 08:06:51;;;;;;;;;;;;;;;;;;5043237;28;19920;-84
2021/09/04 08:09:35;;;;;;;;;;;;;;;;;;5039091;28;19924;-84
2021/09/04 08:12:19;;;;;;;;;;;;;;;;;;5043826;28;20400;-84
2021/09/04 08:15:04;;;;;;;;;;;;;;;;;;5047841;28;20313;-84
2021/09/04 08:17:48;;;;;;;;;;;;;;;;;;5048838;28;19920;-83
2021/09/04 08:20:32;;;;;;;;;;;;;;;;;;5047362;28;19928;-84
2021/09/04 08:23:17;;;;;;;;;;;;;;;;;;5041060;28;19925;-83
2021/09/04 08:26:01;;;;;;;;;;;;;;;;;;5044069;28;19920;-83
2021/09/04 08:28:45;;;;;;;;;;;;;;;;;;5039436;28;19920;-84
2021/09/04 08:31:30;;;;;;;;;;;;;;;;;;5038698;28;19936;-83
2021/09/04 08:34:14;;;;;;;;;;;;;;;;;;5042379;28;20465;-82
2021/09/04 08:36:58;;;;;;;;;;;;;;;;;;5039886;28;19920;-83
2021/09/04 08:39:42;;;;;;;;;;;;;;;;;;5036716;28;19924;-82
2021/09/04 08:42:26;;;;;;;;;;;;;;;;;;5022817;28;20404;-81
2021/09/04 08:45:11;;;;;;;;;;;;;;;;;;5022248;28;19920;-81
2021/09/04 08:47:55;;;;;;;;;;;;;;;;;;5025307;28;19985;-81
2021/09/04 08:50:39;;;;;;;;;;;;;;;;;;5046215;28;19928;-82
2021/09/04 08:53:25;;;;;;;;;;;;;;;;;;5045760;28;19920;-82
2021/09/04 08:56:09;;;;;;;;;;;;;;;;;;5041799;28;20321;-81
2021/09/04 08:58:53;;;;;;;;;;;;;;;;;;5036900;28;19924;-81
2021/09/04 09:01:44;;;;;;;;;;;;;;;;;;5039663;28;19920;-81
2021/09/04 09:04:28;;;;;;;;;;;;;;;;;;5022864;28;19952;-82
2021/09/04 09:07:12;;;;;;;;;;;;;;;;;;5021187;28;19924;-81
2021/09/04 09:09:56;;;;;;;;;;;;;;;;;;5021688;28;19929;-81
2021/09/04 09:12:41;;;;;;;;;;;;;;;;;;5042002;28;19920;-82
2021/09/04 09:15:25;;;;;;;;;;;;;;;;;;5040655;28;19928;-82
2021/09/04 09:18:10;;;;;;;;;;;;;;;;;;5044789;28;19920;-82
2021/09/04 09:20:54;;;;;;;;;;;;;;;;;;5042536;28;19920;-82
2021/09/04 09:23:39;;;;;;;;;;;;;;;;;;5041202;28;19924;-81
2021/09/04 09:26:23;;;;;;;;;;;;;;;;;;5044678;28;19924;-82
2021/09/04 09:29:07;;;;;;;;;;;;;;;;;;5043664;28;19920;-82
2021/09/04 09:31:51;;;;;;;;;;;;;;;;;;5035891;28;19936;-82
2021/09/04 09:34:36;;;;;;;;;;;;;;;;;;5025869;28;19921;-81
2021/09/04 09:37:20;;;;;;;;;;;;;;;;;;5041502;28;19920;-82
2021/09/04 09:40:04;;;;;;;;;;;;;;;;;;5041166;28;19921;-82
2021/09/04 09:42:49;;;;;;;;;;;;;;;;;;5045682;28;19924;-82
2021/09/04 09:45:33;;;;;;;;;;;;;;;;;;5043979;28;19920;-82
2021/09/04 09:48:18;;;;;;;;;;;;;;;;;;5042642;28;19920;-82
2021/09/04 09:51:02;;;;;;;;;;;;;;;;;;5039359;28;19924;-82
2021/09/04 09:53:46;;;;;;;;;;;;;;;;;;5044353;28;20413;-82
2021/09/04 09:56:30;;;;;;;;;;;;;;;;;;5045979;28;19920;-82
2021/09/04 09:59:17;;;;;;;;;;;;;;;;;;5039949;28;20424;-82
2021/09/04 10:02:01;;;;;;;;;;;;;;;;;;5039243;28;19920;-83
2021/09/04 10:04:45;;;;;;;;;;;;;;;;;;5040972;28;19924;-82
2021/09/04 10:07:30;;;;;;;;;;;;;;;;;;5039940;28;19928;-82
2021/09/04 10:10:14;;;;;;;;;;;;;;;;;;5036671;28;19928;-80
2021/09/04 10:12:58;;;;;;;;;;;;;;;;;;5035318;28;19928;-81
2021/09/04 10:15:42;;;;;;;;;;;;;;;;;;5032972;28;19924;-82
2021/09/04 10:18:26;;;;;;;;;;;;;;;;;;5043676;28;19921;-82
2021/09/04 10:21:11;;;;;;;;;;;;;;;;;;5021823;28;19920;-82
2021/09/04 10:23:55;;;;;;;;;;;;;;;;;;5020630;28;19925;-82
2021/09/04 10:26:39;;;;;;;;;;;;;;;;;;5024196;28;19920;-82
2021/09/04 10:29:23;;;;;;;;;;;;;;;;;;5032078;28;19921;-82
2021/09/04 10:32:08;;;;;;;;;;;;;;;;;;5021445;28;20301;-83
2021/09/04 10:34:52;;;;;;;;;;;;;;;;;;5038113;28;19940;-82
2021/09/04 10:37:36;;;;;;;;;;;;;;;;;;5042370;28;19976;-82
2021/09/04 10:40:20;;;;;;;;;;;;;;;;;;5030678;28;19936;-83
2021/09/04 10:43:05;;;;;;;;;;;;;;;;;;5033854;28;19924;-81
2021/09/04 10:45:49;;;;;;;;;;;;;;;;;;5035325;28;19920;-81
2021/09/04 10:48:33;;;;;;;;;;;;;;;;;;5041419;28;19928;-81
2021/09/04 10:51:18;;;;;;;;;;;;;;;;;;5039753;28;20420;-81
2021/09/04 10:54:02;;;;;;;;;;;;;;;;;;5043237;28;19928;-81
2021/09/04 10:56:46;;;;;;;;;;;;;;;;;;5041082;28;19920;-81
2021/09/04 10:59:30;;;;;;;;;;;;;;;;;;5040479;28;20397;-82
2021/09/04 11:02:14;;;;;;;;;;;;;;;;;;5041127;28;19924;-81
2021/09/04 11:04:59;;;;;;;;;;;;;;;;;;5034946;28;20404;-80
2021/09/04 11:07:43;;;;;;;;;;;;;;;;;;5034263;28;20301;-80
2021/09/04 11:10:27;;;;;;;;;;;;;;;;;;5036764;28;19920;-80
2021/09/04 11:13:12;;;;;;;;;;;;;;;;;;5041529;28;19921;-80
2021/09/04 11:15:58;;;;;;;;;;;;;;;;;;5032936;28;20367;-80
2021/09/04 11:18:42;;;;;;;;;;;;;;;;;;5031746;28;19920;-79
2021/09/04 11:21:26;;;;;;;;;;;;;;;;;;5032271;28;20404;-78
2021/09/04 11:24:11;;;;;;;;;;;;;;;;;;5020545;28;20424;-81
2021/09/04 11:26:55;;;;;;;;;;;;;;;;;;5043730;28;19932;-81
2021/09/04 11:29:39;;;;;;;;;;;;;;;;;;5040710;28;19920;-81
2021/09/04 11:32:23;;;;;;;;;;;;;;;;;;5039590;28;19924;-81
2021/09/04 11:35:08;;;;;;;;;;;;;;;;;;5031821;28;19920;-81
2021/09/04 11:37:52;;;;;;;;;;;;;;;;;;5041879;28;19963;-81
2021/09/04 11:40:36;;;;;;;;;;;;;;;;;;5039787;28;19920;-81
2021/09/04 11:43:21;;;;;;;;;;;;;;;;;;5050392;28;19924;-81
2021/09/04 11:46:05;;;;;;;;;;;;;;;;;;5054627;28;19979;-80
2021/09/04 11:48:50;;;;;;;;;;;;;;;;;;5040171;28;19920;-81
2021/09/04 11:51:34;;;;;;;;;;;;;;;;;;5038575;28;19920;-82
2021/09/04 11:54:18;;;;;;;;;;;;;;;;;;5042366;28;19936;-81
2021/09/04 11:57:02;;;;;;;;;;;;;;;;;;5030366;28;19920;-80
2021/09/04 11:59:46;;;;;;;;;;;;;;;;;;5019101;28;19921;-80
2021/09/04 12:02:31;;;;;;;;;;;;;;;;;;5028969;28;19928;-81
2021/09/04 12:05:15;;;;;;;;;;;;;;;;;;5040499;28;19924;-81
2021/09/04 12:07:59;;;;;;;;;;;;;;;;;;5039072;28;19928;-80
2021/09/04 12:10:44;;;;;;;;;;;;;;;;;;5039840;28;19924;-80
2021/09/04 12:13:29;;;;;;;;;;;;;;;;;;5034170;28;19929;-80
2021/09/04 12:16:14;;;;;;;;;;;;;;;;;;5039111;28;19920;-80
2021/09/04 12:18:59;;;;;;;;;;;;;;;;;;5038244;28;19924;-79
2021/09/04 12:21:44;;;;;;;;;;;;;;;;;;5046670;28;19921;-84
2021/09/04 12:24:28;;;;;;;;;;;;;;;;;;5033096;28;19954;-81
2021/09/04 12:27:12;;;;;;;;;;;;;;;;;;5037531;28;19936;-82
2021/09/04 12:29:57;;;;;;;;;;;;;;;;;;5036009;28;19920;-80
2021/09/04 12:32:41;;;;;;;;;;;;;;;;;;5035502;28;19935;-80
2021/09/04 12:35:27;;;;;;;;;;;;;;;;;;5033702;28;19920;-82
2021/09/04 12:38:11;;;;;;;;;;;;;;;;;;5031286;28;19921;-81
2021/09/04 12:40:55;;;;;;;;;;;;;;;;;;5037660;28;19920;-82
2021/09/04 12:43:39;;;;;;;;;;;;;;;;;;5041915;28;19940;-82
2021/09/04 12:46:23;;;;;;;;;;;;;;;;;;5046232;28;19924;-81
2021/09/04 12:49:07;;;;;;;;;;;;;;;;;;5044200;28;19921;-83
2021/09/04 12:51:54;;;;;;;;;;;;;;;;;;5041498;28;20416;-83
2021/09/04 12:54:39;;;;;;;;;;;;;;;;;;5045436;28;20428;-83
2021/09/04 12:57:23;;;;;;;;;;;;;;;;;;5043510;28;19920;-85
2021/09/04 13:00:09;;;;;;;;;;;;;;;;;;5040507;28;20317;-80
2021/09/04 13:02:54;;;;;;;;;;;;;;;;;;5045491;28;19920;-80
2021/09/04 13:05:38;;;;;;;;;;;;;;;;;;5043653;28;19920;-81
2021/09/04 13:08:22;;;;;;;;;;;;;;;;;;5041538;28;19940;-81
2021/09/04 13:11:06;;;;;;;;;;;;;;;;;;5044756;28;20385;-81
2021/09/04 13:13:50;;;;;;;;;;;;;;;;;;5043872;28;19920;-81
2021/09/04 13:16:35;;;;;;;;;;;;;;;;;;5041987;28;19920;-81
2021/09/04 13:19:19;;;;;;;;;;;;;;;;;;5040097;28;20409;-82
2021/09/04 13:22:03;;;;;;;;;;;;;;;;;;5044012;28;20490;-82
2021/09/04 13:24:47;;;;;;;;;;;;;;;;;;5042487;28;19944;-81
2021/09/04 13:27:31;;;;;;;;;;;;;;;;;;5039558;28;19920;-80
2021/09/04 13:30:15;;;;;;;;;;;;;;;;;;5036999;28;19932;-81
2021/09/04 13:33:00;;;;;;;;;;;;;;;;;;5040193;28;19920;-80
2021/09/04 13:35:44;;;;;;;;;;;;;;;;;;5040517;28;19924;-81
2021/09/04 13:38:28;;;;;;;;;;;;;;;;;;5043653;28;19920;-80
2021/09/04 13:41:12;;;;;;;;;;;;;;;;;;5040681;28;20281;-79
2021/09/04 13:43:57;;;;;;;;;;;;;;;;;;5038082;28;19924;-80
2021/09/04 13:46:41;;;;;;;;;;;;;;;;;;5044571;28;19921;-80
2021/09/04 13:49:25;;;;;;;;;;;;;;;;;;5041706;28;19936;-79
2021/09/04 13:52:09;;;;;;;;;;;;;;;;;;5040477;28;19920;-80
2021/09/04 13:54:53;;;;;;;;;;;;;;;;;;5032978;28;19928;-80
2021/09/04 13:57:38;;;;;;;;;;;;;;;;;;5039230;28;19936;-79
2021/09/04 14:00:22;;;;;;;;;;;;;;;;;;5039398;28;19920;-80
2021/09/04 14:03:06;;;;;;;;;;;;;;;;;;5040391;28;20637;-77
2021/09/04 14:05:50;;;;;;;;;;;;;;;;;;5043994;28;19920;-79
2021/09/04 14:08:34;;;;;;;;;;;;;;;;;;5036988;28;19924;-79
2021/09/04 14:11:19;;;;;;;;;;;;;;;;;;5039792;28;19920;-79
2021/09/04 14:14:03;;;;;;;;;;;;;;;;;;5041984;28;19985;-80
2021/09/04 14:16:48;;;;;;;;;;;;;;;;;;5040545;28;19920;-81
2021/09/04 14:19:32;;;;;;;;;;;;;;;;;;5038778;28;20424;-79
2021/09/04 14:22:16;;;;;;;;;;;;;;;;;;5043664;28;19920;-81
2021/09/04 14:25:00;;;;;;;;;;;;;;;;;;5039770;28;19932;-81
2021/09/04 14:27:44;;;;;;;;;;;;;;;;;;5039796;28;19920;-80
2021/09/04 14:30:30;;;;;;;;;;;;;;;;;;5041904;28;20412;-80
2021/09/04 14:33:14;;;;;;;;;;;;;;;;;;5043578;28;19921;-82
2021/09/04 14:35:58;;;;;;;;;;;;;;;;;;5042223;28;19920;-83
2021/09/04 14:38:43;;;;;;;;;;;;;;;;;;5045295;28;19928;-85
2021/09/04 14:41:27;;;;;;;;;;;;;;;;;;5044732;28;19940;-83
2021/09/04 14:44:11;;;;;;;;;;;;;;;;;;5041357;28;19924;-84
2021/09/04 14:46:55;;;;;;;;;;;;;;;;;;5044845;28;19920;-83
2021/09/04 14:49:40;;;;;;;;;;;;;;;;;;5040363;28;20320;-81
2021/09/04 14:52:24;;;;;;;;;;;;;;;;;;5041248;28;19936;-80
2021/09/04 14:55:08;;;;;;;;;;;;;;;;;;5039515;28;19920;-80
2021/09/04 14:57:53;;;;;;;;;;;;;;;;;;5043768;28;20432;-85
2021/09/04 15:00:38;;;;;;;;;;;;;;;;;;5040628;28;19921;-82
2021/09/04 15:03:23;;;;;;;;;;;;;;;;;;5039473;28;19924;-81
2021/09/04 15:06:08;;;;;;;;;;;;;;;;;;5043589;28;19921;-80
2021/09/04 15:08:52;;;;;;;;;;;;;;;;;;5040025;28;20405;-81
2021/09/04 15:11:36;;;;;;;;;;;;;;;;;;5037050;28;20333;-81
2021/09/04 15:14:20;;;;;;;;;;;;;;;;;;5040147;28;19920;-81
2021/09/04 15:17:05;;;;;;;;;;;;;;;;;;5039746;28;19936;-81
2021/09/04 15:19:49;;;;;;;;;;;;;;;;;;5038430;28;19920;-81
2021/09/04 15:22:33;;;;;;;;;;;;;;;;;;5038375;28;19924;-81
2021/09/04 15:25:17;;;;;;;;;;;;;;;;;;5042545;28;19924;-80
2021/09/04 15:28:02;;;;;;;;;;;;;;;;;;5040751;28;20393;-81
2021/09/04 15:30:46;;;;;;;;;;;;;;;;;;5039306;28;19921;-80
2021/09/04 15:33:30;;;;;;;;;;;;;;;;;;5034542;28;20289;-81
2021/09/04 15:36:14;;;;;;;;;;;;;;;;;;5045221;28;19925;-80
2021/09/04 15:38:58;;;;;;;;;;;;;;;;;;5043585;28;19920;-80
2021/09/04 15:41:43;;;;;;;;;;;;;;;;;;5038823;28;19940;-81
2021/09/04 15:44:27;;;;;;;;;;;;;;;;;;5041080;28;19928;-80
2021/09/04 15:47:11;;;;;;;;;;;;;;;;;;5042759;28;19920;-80
2021/09/04 15:49:56;;;;;;;;;;;;;;;;;;5040001;28;19921;-80
2021/09/04 15:52:40;;;;;;;;;;;;;;;;;;5031520;28;19928;-80
2021/09/04 15:55:24;;;;;;;;;;;;;;;;;;5021653;28;20293;-80
2021/09/04 15:58:08;;;;;;;;;;;;;;;;;;5032855;28;19936;-80
2021/09/04 16:00:52;;;;;;;;;;;;;;;;;;5037965;28;19921;-80
2021/09/04 16:03:36;;;;;;;;;;;;;;;;;;5041591;28;19924;-80
2021/09/04 16:06:21;;;;;;;;;;;;;;;;;;5040962;28;19920;-80
2021/09/04 16:09:06;;;;;;;;;;;;;;;;;;5038582;28;19925;-80
2021/09/04 16:11:50;;;;;;;;;;;;;;;;;;5042713;28;19920;-80
2021/09/04 16:14:34;;;;;;;;;;;;;;;;;;5040834;28;19924;-79
2021/09/04 16:17:19;;;;;;;;;;;;;;;;;;5035207;28;19961;-81
2021/09/04 16:20:04;;;;;;;;;;;;;;;;;;5037398;28;19920;-80
2021/09/04 16:22:48;;;;;;;;;;;;;;;;;;5041773;28;19920;-80
2021/09/04 16:25:33;;;;;;;;;;;;;;;;;;5041167;28;19924;-81
2021/09/04 16:28:18;;;;;;;;;;;;;;;;;;5044197;28;19921;-81
2021/09/04 16:31:03;;;;;;;;;;;;;;;;;;5042588;28;19920;-81
2021/09/04 16:33:47;;;;;;;;;;;;;;;;;;5040383;28;20404;-81
2021/09/04 16:36:31;;;;;;;;;;;;;;;;;;5038179;28;20524;-80
2021/09/04 16:39:18;;;;;;;;;;;;;;;;;;5041770;28;19921;-80
2021/09/04 16:42:02;;;;;;;;;;;;;;;;;;5040503;28;19920;-80
2021/09/04 16:44:46;;;;;;;;;;;;;;;;;;5039264;28;20285;-81
2021/09/04 16:47:32;;;;;;;;;;;;;;;;;;5042623;28;20404;-81
2021/09/04 16:50:17;;;;;;;;;;;;;;;;;;5039445;28;19920;-81
2021/09/04 16:53:02;;;;;;;;;;;;;;;;;;5034429;28;20396;-82
2021/09/04 16:55:47;;;;;;;;;;;;;;;;;;5043268;28;19920;-83
2021/09/04 16:58:31;;;;;;;;;;;;;;;;;;5040704;28;20404;-81
2021/09/04 17:01:16;;;;;;;;;;;;;;;;;;5035183;28;19920;-82
2021/09/04 17:04:01;;;;;;;;;;;;;;;;;;5042381;28;19928;-81
2021/09/04 17:06:45;;;;;;;;;;;;;;;;;;5037474;28;19920;-80
2021/09/04 17:09:29;;;;;;;;;;;;;;;;;;5035734;28;19924;-81
2021/09/04 17:12:14;;;;;;;;;;;;;;;;;;5042377;28;19924;-80
2021/09/04 17:14:58;;;;;;;;;;;;;;;;;;5040896;28;20341;-80
2021/09/04 17:17:42;;;;;;;;;;;;;;;;;;5049096;28;19923;-80
2021/09/04 17:20:26;;;;;;;;;;;;;;;;;;5058682;28;20281;-80
2021/09/04 17:23:11;;;;;;;;;;;;;;;;;;5045233;28;19920;-80
2021/09/04 17:25:55;;;;;;;;;;;;;;;;;;5057949;28;19921;-80
2021/09/04 17:32:07;;;;;;;;;;;;;;;;;;5032003;28;20681;-79
2021/09/04 17:34:51;;;;;;;;;;;;;;;;;;5049342;28;19920;-79
2021/09/04 17:37:36;;;;;;;;;;;;;;;;;;5050626;28;19919;-79
2021/09/04 17:40:20;;;;;;;;;;;;;;;;;;5045383;28;20313;-79
2021/09/04 17:43:04;;;;;;;;;;;;;;;;;;5059462;28;20412;-79
2021/09/04 17:45:49;;;;;;;;;;;;;;;;;;5049643;28;19924;-80
2021/09/04 17:48:33;;;;;;;;;;;;;;;;;;5043602;28;19920;-80
2021/09/04 17:51:17;;;;;;;;;;;;;;;;;;5039091;28;20293;-80
2021/09/04 17:54:02;;;;;;;;;;;;;;;;;;5058164;28;19920;-81
2021/09/04 17:56:46;;;;;;;;;;;;;;;;;;5057885;28;20419;-80
2021/09/04 17:59:30;;;;;;;;;;;;;;;;;;5060779;28;19920;-81
2021/09/04 18:02:14;;;;;;;;;;;;;;;;;;5047347;28;19924;-78
2021/09/04 18:04:59;;;;;;;;;;;;;;;;;;5034387;28;19952;-78
2021/09/04 18:07:43;;;;;;;;;;;;;;;;;;5036671;28;19988;-77
2021/09/04 18:10:27;;;;;;;;;;;;;;;;;;5038930;28;19940;-78
2021/09/04 18:13:11;;;;;;;;;;;;;;;;;;5059568;28;19920;-78
2021/09/04 18:15:55;;;;;;;;;;;;;;;;;;5046418;28;19920;-78
2021/09/04 18:18:40;;;;;;;;;;;;;;;;;;5038882;28;19920;-78
2021/09/04 18:21:24;;;;;;;;;;;;;;;;;;5039801;28;19924;-77
2021/09/04 18:24:08;;;;;;;;;;;;;;;;;;5037878;28;19924;-78
2021/09/04 18:26:52;;;;;;;;;;;;;;;;;;5036327;28;19920;-78
2021/09/04 18:29:37;;;;;;;;;;;;;;;;;;5037694;28;19920;-78
2021/09/04 18:32:21;;;;;;;;;;;;;;;;;;5035875;28;19920;-78
2021/09/04 18:35:05;;;;;;;;;;;;;;;;;;5035881;28;19920;-78
2021/09/04 18:37:49;;;;;;;;;;;;;;;;;;5038348;28;19920;-78
2021/09/04 18:40:34;;;;;;;;;;;;;;;;;;5036003;28;19924;-78
2021/09/04 18:43:18;;;;;;;;;;;;;;;;;;5029863;28;19936;-78
2021/09/04 18:46:02;;;;;;;;;;;;;;;;;;5043610;28;19924;-78